sensor_id;sensor_type;location;lat;lon;timestamp;P1;durP1;ratioP1;P2;durP2;ratioP2
16228;SDS011;8222;51.462;12.630;2022-12-24T00:01:19;1.87;;;1.77;;
16228;SDS011;8222;51.462;12.630;2022-12-24T00:03:45;1.90;;;1.77;;
16228;SDS011;8222;51.462;12.630;2022-12-24T00:06:21;1.97;;;1.77;;
16228;SDS011;8222;51.462;12.630;2022-12-24T00:08:48;1.90;;;1.40;;
16228;SDS011;8222;51.462;12.630;2022-12-24T00:11:15;2.08;;;1.65;;
16228;SDS011;8222;51.462;12.630;2022-12-24T00:13:41;1.63;;;1.52;;
16228;SDS011;8222;51.462;12.630;2022-12-24T00:16:09;2.83;;;1.30;;
16228;SDS011;8222;51.462;12.630;2022-12-24T00:18:35;2.10;;;1.47;;
16228;SDS011;8222;51.462;12.630;2022-12-24T00:21:00;1.30;;;1.20;;
16228;SDS011;8222;51.462;12.630;2022-12-24T00:23:28;1.50;;;1.40;;
16228;SDS011;8222;51.462;12.630;2022-12-24T00:25:54;2.80;;;1.20;;
16228;SDS011;8222;51.462;12.630;2022-12-24T00:28:20;1.70;;;1.30;;
16228;SDS011;8222;51.462;12.630;2022-12-24T00:30:45;1.27;;;1.00;;
16228;SDS011;8222;51.462;12.630;2022-12-24T00:33:11;2.92;;;1.33;;
16228;SDS011;8222;51.462;12.630;2022-12-24T00:35:37;1.60;;;1.37;;
16228;SDS011;8222;51.462;12.630;2022-12-24T00:38:04;1.10;;;1.10;;
16228;SDS011;8222;51.462;12.630;2022-12-24T00:40:30;1.45;;;1.10;;
16228;SDS011;8222;51.462;12.630;2022-12-24T00:42:56;1.90;;;1.33;;
16228;SDS011;8222;51.462;12.630;2022-12-24T00:45:22;1.97;;;1.03;;
16228;SDS011;8222;51.462;12.630;2022-12-24T00:47:48;1.93;;;1.10;;
16228;SDS011;8222;51.462;12.630;2022-12-24T00:50:14;1.30;;;1.20;;
16228;SDS011;8222;51.462;12.630;2022-12-24T00:52:39;1.50;;;1.10;;
16228;SDS011;8222;51.462;12.630;2022-12-24T00:55:05;3.27;;;1.87;;
16228;SDS011;8222;51.462;12.630;2022-12-24T00:57:31;2.80;;;1.30;;
16228;SDS011;8222;51.462;12.630;2022-12-24T00:59:59;4.45;;;1.40;;
16228;SDS011;8222;51.462;12.630;2022-12-24T01:02:24;1.48;;;1.30;;
16228;SDS011;8222;51.462;12.630;2022-12-24T01:04:50;3.00;;;1.50;;
16228;SDS011;8222;51.462;12.630;2022-12-24T01:07:34;2.30;;;1.30;;
16228;SDS011;8222;51.462;12.630;2022-12-24T01:10:01;2.75;;;1.40;;
16228;SDS011;8222;51.462;12.630;2022-12-24T01:12:28;3.63;;;1.65;;
16228;SDS011;8222;51.462;12.630;2022-12-24T01:14:53;3.47;;;1.65;;
16228;SDS011;8222;51.462;12.630;2022-12-24T01:17:19;2.20;;;1.60;;
16228;SDS011;8222;51.462;12.630;2022-12-24T01:19:44;3.38;;;1.90;;
16228;SDS011;8222;51.462;12.630;2022-12-24T01:22:10;4.17;;;2.20;;
16228;SDS011;8222;51.462;12.630;2022-12-24T01:24:37;4.68;;;1.85;;
16228;SDS011;8222;51.462;12.630;2022-12-24T01:27:05;4.55;;;1.70;;
16228;SDS011;8222;51.462;12.630;2022-12-24T01:29:30;4.22;;;2.10;;
16228;SDS011;8222;51.462;12.630;2022-12-24T01:31:56;2.73;;;1.70;;
16228;SDS011;8222;51.462;12.630;2022-12-24T01:34:21;5.18;;;1.63;;
16228;SDS011;8222;51.462;12.630;2022-12-24T01:36:47;3.10;;;1.70;;
16228;SDS011;8222;51.462;12.630;2022-12-24T01:39:13;4.73;;;1.80;;
16228;SDS011;8222;51.462;12.630;2022-12-24T01:41:38;5.05;;;1.88;;
16228;SDS011;8222;51.462;12.630;2022-12-24T01:44:32;3.63;;;1.67;;
16228;SDS011;8222;51.462;12.630;2022-12-24T01:47:05;4.18;;;1.80;;
16228;SDS011;8222;51.462;12.630;2022-12-24T01:49:43;4.45;;;1.88;;
16228;SDS011;8222;51.462;12.630;2022-12-24T01:52:33;2.80;;;1.00;;
16228;SDS011;8222;51.462;12.630;2022-12-24T01:55:02;5.80;;;2.00;;
16228;SDS011;8222;51.462;12.630;2022-12-24T01:57:40;7.63;;;1.95;;
16228;SDS011;8222;51.462;12.630;2022-12-24T02:00:14;3.55;;;2.20;;
16228;SDS011;8222;51.462;12.630;2022-12-24T02:02:42;4.83;;;1.50;;
16228;SDS011;8222;51.462;12.630;2022-12-24T02:05:11;4.28;;;2.10;;
16228;SDS011;8222;51.462;12.630;2022-12-24T02:07:58;6.75;;;2.28;;
16228;SDS011;8222;51.462;12.630;2022-12-24T02:10:26;5.13;;;2.17;;
16228;SDS011;8222;51.462;12.630;2022-12-24T02:12:53;8.95;;;2.70;;
16228;SDS011;8222;51.462;12.630;2022-12-24T02:15:20;3.97;;;1.90;;
16228;SDS011;8222;51.462;12.630;2022-12-24T02:18:00;5.70;;;1.90;;
16228;SDS011;8222;51.462;12.630;2022-12-24T02:31:56;5.03;;;2.03;;
16228;SDS011;8222;51.462;12.630;2022-12-24T02:34:30;4.45;;;1.80;;
16228;SDS011;8222;51.462;12.630;2022-12-24T02:39:48;5.35;;;2.17;;
16228;SDS011;8222;51.462;12.630;2022-12-24T02:42:45;8.20;;;1.90;;
16228;SDS011;8222;51.462;12.630;2022-12-24T02:45:19;4.90;;;1.70;;
16228;SDS011;8222;51.462;12.630;2022-12-24T02:47:50;4.05;;;1.90;;
16228;SDS011;8222;51.462;12.630;2022-12-24T02:50:17;6.57;;;2.10;;
16228;SDS011;8222;51.462;12.630;2022-12-24T02:52:45;7.70;;;2.10;;
16228;SDS011;8222;51.462;12.630;2022-12-24T02:55:13;4.90;;;1.70;;
16228;SDS011;8222;51.462;12.630;2022-12-24T03:11:52;5.50;;;1.90;;
16228;SDS011;8222;51.462;12.630;2022-12-24T03:14:23;3.75;;;1.67;;
16228;SDS011;8222;51.462;12.630;2022-12-24T03:16:50;4.20;;;1.70;;
16228;SDS011;8222;51.462;12.630;2022-12-24T03:19:16;4.77;;;1.73;;
16228;SDS011;8222;51.462;12.630;2022-12-24T03:21:42;4.13;;;1.63;;
16228;SDS011;8222;51.462;12.630;2022-12-24T03:24:10;4.32;;;1.58;;
16228;SDS011;8222;51.462;12.630;2022-12-24T03:26:36;3.23;;;1.17;;
16228;SDS011;8222;51.462;12.630;2022-12-24T03:29:04;7.07;;;1.95;;
16228;SDS011;8222;51.462;12.630;2022-12-24T03:31:41;3.17;;;1.75;;
16228;SDS011;8222;51.462;12.630;2022-12-24T03:34:11;4.72;;;1.45;;
16228;SDS011;8222;51.462;12.630;2022-12-24T03:36:38;4.13;;;1.70;;
16228;SDS011;8222;51.462;12.630;2022-12-24T03:39:04;4.93;;;2.00;;
16228;SDS011;8222;51.462;12.630;2022-12-24T03:41:30;7.55;;;1.73;;
16228;SDS011;8222;51.462;12.630;2022-12-24T03:43:56;4.47;;;1.42;;
16228;SDS011;8222;51.462;12.630;2022-12-24T03:46:23;4.97;;;1.65;;
16228;SDS011;8222;51.462;12.630;2022-12-24T03:48:49;4.47;;;1.40;;
16228;SDS011;8222;51.462;12.630;2022-12-24T03:51:15;4.72;;;1.48;;
16228;SDS011;8222;51.462;12.630;2022-12-24T03:53:42;7.40;;;1.50;;
16228;SDS011;8222;51.462;12.630;2022-12-24T03:56:10;3.28;;;1.50;;
16228;SDS011;8222;51.462;12.630;2022-12-24T03:58:35;6.35;;;1.70;;
16228;SDS011;8222;51.462;12.630;2022-12-24T04:01:01;5.23;;;1.40;;
16228;SDS011;8222;51.462;12.630;2022-12-24T04:03:27;3.50;;;1.70;;
16228;SDS011;8222;51.462;12.630;2022-12-24T04:08:33;6.15;;;1.50;;
16228;SDS011;8222;51.462;12.630;2022-12-24T04:10:59;3.70;;;1.67;;
16228;SDS011;8222;51.462;12.630;2022-12-24T04:13:25;4.80;;;1.45;;
16228;SDS011;8222;51.462;12.630;2022-12-24T04:16:00;4.87;;;1.40;;
16228;SDS011;8222;51.462;12.630;2022-12-24T04:18:28;5.00;;;1.50;;
16228;SDS011;8222;51.462;12.630;2022-12-24T04:20:54;6.20;;;1.50;;
16228;SDS011;8222;51.462;12.630;2022-12-24T04:23:22;4.30;;;2.17;;
16228;SDS011;8222;51.462;12.630;2022-12-24T04:25:49;4.65;;;1.80;;
16228;SDS011;8222;51.462;12.630;2022-12-24T04:28:14;4.80;;;1.95;;
16228;SDS011;8222;51.462;12.630;2022-12-24T04:30:41;5.07;;;2.10;;
16228;SDS011;8222;51.462;12.630;2022-12-24T04:33:07;5.32;;;1.92;;
16228;SDS011;8222;51.462;12.630;2022-12-24T04:35:38;4.00;;;1.70;;
16228;SDS011;8222;51.462;12.630;2022-12-24T04:38:05;4.38;;;1.70;;
16228;SDS011;8222;51.462;12.630;2022-12-24T04:40:32;3.30;;;1.63;;
16228;SDS011;8222;51.462;12.630;2022-12-24T04:42:57;2.45;;;1.45;;
16228;SDS011;8222;51.462;12.630;2022-12-24T04:45:23;5.93;;;2.60;;
16228;SDS011;8222;51.462;12.630;2022-12-24T04:47:49;4.83;;;2.07;;
16228;SDS011;8222;51.462;12.630;2022-12-24T04:50:14;3.97;;;1.97;;
16228;SDS011;8222;51.462;12.630;2022-12-24T04:52:40;3.70;;;1.83;;
16228;SDS011;8222;51.462;12.630;2022-12-24T04:55:05;4.00;;;1.70;;
16228;SDS011;8222;51.462;12.630;2022-12-24T04:57:32;3.95;;;1.90;;
16228;SDS011;8222;51.462;12.630;2022-12-24T04:59:59;4.30;;;1.92;;
16228;SDS011;8222;51.462;12.630;2022-12-24T05:02:25;4.65;;;1.80;;
16228;SDS011;8222;51.462;12.630;2022-12-24T05:04:51;6.13;;;1.40;;
16228;SDS011;8222;51.462;12.630;2022-12-24T05:07:17;4.90;;;1.83;;
16228;SDS011;8222;51.462;12.630;2022-12-24T05:09:42;3.35;;;1.48;;
16228;SDS011;8222;51.462;12.630;2022-12-24T05:12:08;4.97;;;1.57;;
16228;SDS011;8222;51.462;12.630;2022-12-24T05:14:34;4.68;;;1.33;;
16228;SDS011;8222;51.462;12.630;2022-12-24T05:16:59;4.90;;;1.40;;
16228;SDS011;8222;51.462;12.630;2022-12-24T05:19:25;4.77;;;1.67;;
16228;SDS011;8222;51.462;12.630;2022-12-24T05:21:50;3.55;;;2.22;;
16228;SDS011;8222;51.462;12.630;2022-12-24T05:24:34;5.03;;;1.53;;
16228;SDS011;8222;51.462;12.630;2022-12-24T05:27:21;4.75;;;1.50;;
16228;SDS011;8222;51.462;12.630;2022-12-24T05:29:46;6.73;;;2.10;;
16228;SDS011;8222;51.462;12.630;2022-12-24T05:32:12;3.33;;;1.47;;
16228;SDS011;8222;51.462;12.630;2022-12-24T05:34:38;6.47;;;1.88;;
16228;SDS011;8222;51.462;12.630;2022-12-24T05:37:03;2.23;;;1.40;;
16228;SDS011;8222;51.462;12.630;2022-12-24T05:39:31;3.25;;;1.58;;
16228;SDS011;8222;51.462;12.630;2022-12-24T05:41:56;4.13;;;1.93;;
16228;SDS011;8222;51.462;12.630;2022-12-24T05:44:22;2.70;;;1.73;;
16228;SDS011;8222;51.462;12.630;2022-12-24T05:46:47;5.25;;;1.40;;
16228;SDS011;8222;51.462;12.630;2022-12-24T05:49:13;3.70;;;1.93;;
16228;SDS011;8222;51.462;12.630;2022-12-24T05:51:41;4.43;;;1.70;;
16228;SDS011;8222;51.462;12.630;2022-12-24T05:54:07;3.67;;;1.58;;
16228;SDS011;8222;51.462;12.630;2022-12-24T05:56:33;3.42;;;1.83;;
16228;SDS011;8222;51.462;12.630;2022-12-24T05:58:58;5.40;;;1.88;;
16228;SDS011;8222;51.462;12.630;2022-12-24T06:01:24;4.65;;;2.58;;
16228;SDS011;8222;51.462;12.630;2022-12-24T06:03:50;5.38;;;1.90;;
16228;SDS011;8222;51.462;12.630;2022-12-24T06:06:19;3.90;;;1.73;;
16228;SDS011;8222;51.462;12.630;2022-12-24T06:08:48;4.68;;;1.85;;
16228;SDS011;8222;51.462;12.630;2022-12-24T06:11:15;4.22;;;1.73;;
16228;SDS011;8222;51.462;12.630;2022-12-24T06:13:42;6.65;;;2.25;;
16228;SDS011;8222;51.462;12.630;2022-12-24T06:16:11;6.75;;;2.10;;
16228;SDS011;8222;51.462;12.630;2022-12-24T06:18:38;4.53;;;1.90;;
16228;SDS011;8222;51.462;12.630;2022-12-24T06:21:05;4.53;;;2.08;;
16228;SDS011;8222;51.462;12.630;2022-12-24T06:23:32;6.00;;;2.28;;
16228;SDS011;8222;51.462;12.630;2022-12-24T06:25:59;5.35;;;1.85;;
16228;SDS011;8222;51.462;12.630;2022-12-24T06:28:27;4.30;;;1.98;;
16228;SDS011;8222;51.462;12.630;2022-12-24T06:30:55;6.00;;;2.20;;
16228;SDS011;8222;51.462;12.630;2022-12-24T06:33:21;6.93;;;1.87;;
16228;SDS011;8222;51.462;12.630;2022-12-24T06:35:47;5.77;;;2.20;;
16228;SDS011;8222;51.462;12.630;2022-12-24T06:38:13;3.60;;;1.73;;
16228;SDS011;8222;51.462;12.630;2022-12-24T06:40:41;4.93;;;1.95;;
16228;SDS011;8222;51.462;12.630;2022-12-24T06:43:08;4.03;;;1.70;;
16228;SDS011;8222;51.462;12.630;2022-12-24T06:45:35;6.57;;;1.90;;
16228;SDS011;8222;51.462;12.630;2022-12-24T06:48:03;3.97;;;1.80;;
16228;SDS011;8222;51.462;12.630;2022-12-24T06:50:29;6.25;;;1.98;;
16228;SDS011;8222;51.462;12.630;2022-12-24T06:52:56;4.77;;;1.83;;
16228;SDS011;8222;51.462;12.630;2022-12-24T06:55:22;5.80;;;1.67;;
16228;SDS011;8222;51.462;12.630;2022-12-24T06:57:47;6.00;;;1.98;;
16228;SDS011;8222;51.462;12.630;2022-12-24T07:00:15;6.20;;;2.00;;
16228;SDS011;8222;51.462;12.630;2022-12-24T07:02:41;6.55;;;2.80;;
16228;SDS011;8222;51.462;12.630;2022-12-24T07:05:08;4.78;;;3.05;;
16228;SDS011;8222;51.462;12.630;2022-12-24T07:07:36;7.07;;;4.10;;
16228;SDS011;8222;51.462;12.630;2022-12-24T07:10:02;6.20;;;2.63;;
16228;SDS011;8222;51.462;12.630;2022-12-24T07:12:28;4.70;;;1.85;;
16228;SDS011;8222;51.462;12.630;2022-12-24T07:14:54;3.40;;;1.90;;
16228;SDS011;8222;51.462;12.630;2022-12-24T07:17:20;5.65;;;2.10;;
16228;SDS011;8222;51.462;12.630;2022-12-24T07:19:45;6.45;;;2.45;;
16228;SDS011;8222;51.462;12.630;2022-12-24T07:22:11;6.33;;;2.67;;
16228;SDS011;8222;51.462;12.630;2022-12-24T07:24:39;6.73;;;2.27;;
16228;SDS011;8222;51.462;12.630;2022-12-24T07:27:06;5.40;;;2.33;;
16228;SDS011;8222;51.462;12.630;2022-12-24T07:29:32;5.63;;;2.10;;
16228;SDS011;8222;51.462;12.630;2022-12-24T07:31:58;6.30;;;2.07;;
16228;SDS011;8222;51.462;12.630;2022-12-24T07:34:24;5.17;;;2.60;;
16228;SDS011;8222;51.462;12.630;2022-12-24T07:36:50;7.57;;;3.30;;
16228;SDS011;8222;51.462;12.630;2022-12-24T07:39:15;4.47;;;2.90;;
16228;SDS011;8222;51.462;12.630;2022-12-24T07:41:41;4.43;;;3.20;;
16228;SDS011;8222;51.462;12.630;2022-12-24T07:44:10;7.18;;;3.30;;
16228;SDS011;8222;51.462;12.630;2022-12-24T07:46:39;7.65;;;2.75;;
16228;SDS011;8222;51.462;12.630;2022-12-24T07:49:07;10.02;;;4.13;;
16228;SDS011;8222;51.462;12.630;2022-12-24T07:51:32;7.05;;;3.97;;
16228;SDS011;8222;51.462;12.630;2022-12-24T07:53:58;5.53;;;2.53;;
16228;SDS011;8222;51.462;12.630;2022-12-24T07:56:24;8.20;;;2.65;;
16228;SDS011;8222;51.462;12.630;2022-12-24T07:58:50;7.60;;;2.63;;
16228;SDS011;8222;51.462;12.630;2022-12-24T08:01:16;4.68;;;1.83;;
16228;SDS011;8222;51.462;12.630;2022-12-24T08:03:42;6.15;;;2.35;;
16228;SDS011;8222;51.462;12.630;2022-12-24T08:06:08;6.05;;;1.98;;
16228;SDS011;8222;51.462;12.630;2022-12-24T08:08:35;5.15;;;2.15;;
16228;SDS011;8222;51.462;12.630;2022-12-24T08:11:02;4.80;;;2.03;;
16228;SDS011;8222;51.462;12.630;2022-12-24T08:13:29;4.53;;;1.98;;
16228;SDS011;8222;51.462;12.630;2022-12-24T08:15:57;7.07;;;2.30;;
16228;SDS011;8222;51.462;12.630;2022-12-24T08:18:23;5.15;;;2.05;;
16228;SDS011;8222;51.462;12.630;2022-12-24T08:20:49;6.60;;;1.77;;
16228;SDS011;8222;51.462;12.630;2022-12-24T08:23:17;7.00;;;2.17;;
16228;SDS011;8222;51.462;12.630;2022-12-24T08:25:46;8.30;;;2.30;;
16228;SDS011;8222;51.462;12.630;2022-12-24T08:28:13;6.30;;;2.03;;
16228;SDS011;8222;51.462;12.630;2022-12-24T08:30:42;6.72;;;2.45;;
16228;SDS011;8222;51.462;12.630;2022-12-24T08:33:10;8.77;;;2.90;;
16228;SDS011;8222;51.462;12.630;2022-12-24T08:35:36;7.30;;;3.50;;
16228;SDS011;8222;51.462;12.630;2022-12-24T08:38:01;7.47;;;3.30;;
16228;SDS011;8222;51.462;12.630;2022-12-24T08:40:27;7.43;;;3.17;;
16228;SDS011;8222;51.462;12.630;2022-12-24T08:42:52;9.27;;;3.30;;
16228;SDS011;8222;51.462;12.630;2022-12-24T08:45:20;5.97;;;2.72;;
16228;SDS011;8222;51.462;12.630;2022-12-24T08:47:46;7.30;;;2.67;;
16228;SDS011;8222;51.462;12.630;2022-12-24T08:50:12;6.20;;;2.45;;
16228;SDS011;8222;51.462;12.630;2022-12-24T08:52:38;5.97;;;2.80;;
16228;SDS011;8222;51.462;12.630;2022-12-24T08:55:04;5.33;;;2.70;;
16228;SDS011;8222;51.462;12.630;2022-12-24T08:57:30;6.65;;;2.55;;
16228;SDS011;8222;51.462;12.630;2022-12-24T08:59:58;7.68;;;2.65;;
16228;SDS011;8222;51.462;12.630;2022-12-24T09:02:26;5.72;;;2.47;;
16228;SDS011;8222;51.462;12.630;2022-12-24T09:04:51;8.93;;;2.97;;
16228;SDS011;8222;51.462;12.630;2022-12-24T09:07:17;8.47;;;2.50;;
16228;SDS011;8222;51.462;12.630;2022-12-24T09:09:42;5.20;;;2.25;;
16228;SDS011;8222;51.462;12.630;2022-12-24T09:12:10;10.38;;;3.10;;
16228;SDS011;8222;51.462;12.630;2022-12-24T09:14:35;4.07;;;2.20;;
16228;SDS011;8222;51.462;12.630;2022-12-24T09:17:01;7.53;;;2.40;;
16228;SDS011;8222;51.462;12.630;2022-12-24T09:19:27;6.97;;;2.75;;
16228;SDS011;8222;51.462;12.630;2022-12-24T09:21:52;6.33;;;2.43;;
16228;SDS011;8222;51.462;12.630;2022-12-24T09:24:18;4.93;;;1.98;;
16228;SDS011;8222;51.462;12.630;2022-12-24T09:26:44;5.25;;;2.33;;
16228;SDS011;8222;51.462;12.630;2022-12-24T09:29:13;6.88;;;3.00;;
16228;SDS011;8222;51.462;12.630;2022-12-24T09:31:40;6.40;;;2.75;;
16228;SDS011;8222;51.462;12.630;2022-12-24T09:34:07;7.82;;;2.58;;
16228;SDS011;8222;51.462;12.630;2022-12-24T09:36:33;6.57;;;2.70;;
16228;SDS011;8222;51.462;12.630;2022-12-24T09:38:59;7.93;;;2.80;;
16228;SDS011;8222;51.462;12.630;2022-12-24T09:47:01;5.97;;;2.00;;
16228;SDS011;8222;51.462;12.630;2022-12-24T09:49:41;7.23;;;2.50;;
16228;SDS011;8222;51.462;12.630;2022-12-24T09:52:13;5.65;;;1.98;;
16228;SDS011;8222;51.462;12.630;2022-12-24T09:54:50;6.60;;;2.55;;
16228;SDS011;8222;51.462;12.630;2022-12-24T09:57:24;8.97;;;2.87;;
16228;SDS011;8222;51.462;12.630;2022-12-24T09:59:56;8.65;;;2.70;;
16228;SDS011;8222;51.462;12.630;2022-12-24T10:02:21;8.52;;;2.50;;
16228;SDS011;8222;51.462;12.630;2022-12-24T10:04:47;9.25;;;2.80;;
16228;SDS011;8222;51.462;12.630;2022-12-24T10:13:01;4.40;;;2.17;;
16228;SDS011;8222;51.462;12.630;2022-12-24T10:15:53;9.07;;;3.10;;
16228;SDS011;8222;51.462;12.630;2022-12-24T10:21:09;6.30;;;2.50;;
16228;SDS011;8222;51.462;12.630;2022-12-24T10:23:49;5.88;;;2.35;;
16228;SDS011;8222;51.462;12.630;2022-12-24T10:26:26;6.93;;;2.92;;
16228;SDS011;8222;51.462;12.630;2022-12-24T10:29:04;6.80;;;2.67;;
16228;SDS011;8222;51.462;12.630;2022-12-24T10:31:44;7.93;;;2.55;;
16228;SDS011;8222;51.462;12.630;2022-12-24T10:34:24;8.02;;;3.00;;
16228;SDS011;8222;51.462;12.630;2022-12-24T10:36:54;6.80;;;2.80;;
16228;SDS011;8222;51.462;12.630;2022-12-24T10:39:22;8.02;;;2.97;;
16228;SDS011;8222;51.462;12.630;2022-12-24T10:41:50;6.60;;;3.75;;
16228;SDS011;8222;51.462;12.630;2022-12-24T10:44:20;9.38;;;4.07;;
16228;SDS011;8222;51.462;12.630;2022-12-24T10:46:48;10.57;;;4.47;;
16228;SDS011;8222;51.462;12.630;2022-12-24T10:49:17;6.85;;;3.25;;
16228;SDS011;8222;51.462;12.630;2022-12-24T10:51:50;6.50;;;3.35;;
16228;SDS011;8222;51.462;12.630;2022-12-24T10:54:23;6.03;;;2.97;;
16228;SDS011;8222;51.462;12.630;2022-12-24T10:56:54;7.47;;;2.35;;
16228;SDS011;8222;51.462;12.630;2022-12-24T11:01:55;4.53;;;1.85;;
16228;SDS011;8222;51.462;12.630;2022-12-24T11:04:23;6.13;;;1.70;;
16228;SDS011;8222;51.462;12.630;2022-12-24T11:06:59;5.15;;;2.08;;
16228;SDS011;8222;51.462;12.630;2022-12-24T11:09:42;5.73;;;2.90;;
16228;SDS011;8222;51.462;12.630;2022-12-24T11:12:39;5.93;;;2.20;;
16228;SDS011;8222;51.462;12.630;2022-12-24T11:15:15;4.97;;;2.10;;
16228;SDS011;8222;51.462;12.630;2022-12-24T11:17:42;7.65;;;2.47;;
16228;SDS011;8222;51.462;12.630;2022-12-24T11:20:17;3.93;;;2.03;;
16228;SDS011;8222;51.462;12.630;2022-12-24T11:22:47;4.60;;;2.38;;
16228;SDS011;8222;51.462;12.630;2022-12-24T11:25:21;4.90;;;2.25;;
16228;SDS011;8222;51.462;12.630;2022-12-24T11:27:51;5.37;;;1.83;;
16228;SDS011;8222;51.462;12.630;2022-12-24T11:30:19;5.78;;;2.50;;
16228;SDS011;8222;51.462;12.630;2022-12-24T11:33:19;5.30;;;2.50;;
16228;SDS011;8222;51.462;12.630;2022-12-24T11:35:47;4.17;;;1.90;;
16228;SDS011;8222;51.462;12.630;2022-12-24T11:38:18;3.03;;;1.52;;
16228;SDS011;8222;51.462;12.630;2022-12-24T11:40:47;3.33;;;1.65;;
16228;SDS011;8222;51.462;12.630;2022-12-24T11:43:35;5.18;;;1.83;;
16228;SDS011;8222;51.462;12.630;2022-12-24T11:48:45;5.28;;;2.15;;
16228;SDS011;8222;51.462;12.630;2022-12-24T11:51:19;3.58;;;1.80;;
16228;SDS011;8222;51.462;12.630;2022-12-24T11:56:44;4.40;;;1.77;;
16228;SDS011;8222;51.462;12.630;2022-12-24T11:59:18;2.90;;;1.65;;
16228;SDS011;8222;51.462;12.630;2022-12-24T12:02:01;2.88;;;1.60;;
16228;SDS011;8222;51.462;12.630;2022-12-24T12:05:21;4.72;;;1.58;;
16228;SDS011;8222;51.462;12.630;2022-12-24T12:07:51;4.32;;;2.00;;
16228;SDS011;8222;51.462;12.630;2022-12-24T12:10:24;3.45;;;1.27;;
16228;SDS011;8222;51.462;12.630;2022-12-24T12:13:05;4.95;;;1.80;;
16228;SDS011;8222;51.462;12.630;2022-12-24T12:18:41;4.00;;;1.67;;
16228;SDS011;8222;51.462;12.630;2022-12-24T12:21:16;5.60;;;1.58;;
16228;SDS011;8222;51.462;12.630;2022-12-24T12:23:51;2.47;;;1.75;;
16228;SDS011;8222;51.462;12.630;2022-12-24T12:26:26;2.95;;;1.25;;
16228;SDS011;8222;51.462;12.630;2022-12-24T12:28:55;3.83;;;1.50;;
16228;SDS011;8222;51.462;12.630;2022-12-24T12:31:26;3.30;;;1.73;;
16228;SDS011;8222;51.462;12.630;2022-12-24T12:34:48;2.85;;;1.67;;
16228;SDS011;8222;51.462;12.630;2022-12-24T12:37:11;3.50;;;1.77;;
16228;SDS011;8222;51.462;12.630;2022-12-24T12:39:42;4.45;;;1.67;;
16228;SDS011;8222;51.462;12.630;2022-12-24T12:50:24;3.38;;;1.60;;
16228;SDS011;8222;51.462;12.630;2022-12-24T12:53:14;4.18;;;1.67;;
16228;SDS011;8222;51.462;12.630;2022-12-24T12:58:35;4.00;;;2.33;;
16228;SDS011;8222;51.462;12.630;2022-12-24T13:01:08;3.70;;;2.67;;
16228;SDS011;8222;51.462;12.630;2022-12-24T13:06:59;4.90;;;2.58;;
16228;SDS011;8222;51.462;12.630;2022-12-24T13:09:32;6.25;;;2.85;;
16228;SDS011;8222;51.462;12.630;2022-12-24T13:12:24;4.82;;;2.10;;
16228;SDS011;8222;51.462;12.630;2022-12-24T13:17:54;3.95;;;2.25;;
16228;SDS011;8222;51.462;12.630;2022-12-24T13:20:45;3.05;;;1.80;;
16228;SDS011;8222;51.462;12.630;2022-12-24T13:23:14;6.13;;;2.17;;
16228;SDS011;8222;51.462;12.630;2022-12-24T13:25:44;6.55;;;2.20;;
16228;SDS011;8222;51.462;12.630;2022-12-24T13:30:46;4.13;;;1.60;;
16228;SDS011;8222;51.462;12.630;2022-12-24T13:33:44;3.03;;;1.70;;
16228;SDS011;8222;51.462;12.630;2022-12-24T13:36:07;4.07;;;2.00;;
16228;SDS011;8222;51.462;12.630;2022-12-24T13:46:58;4.90;;;1.98;;
16228;SDS011;8222;51.462;12.630;2022-12-24T13:49:26;6.30;;;1.87;;
16228;SDS011;8222;51.462;12.630;2022-12-24T13:54:31;3.92;;;1.98;;
16228;SDS011;8222;51.462;12.630;2022-12-24T13:57:01;4.85;;;1.98;;
16228;SDS011;8222;51.462;12.630;2022-12-24T13:59:47;3.28;;;1.80;;
16228;SDS011;8222;51.462;12.630;2022-12-24T14:02:25;3.60;;;1.80;;
16228;SDS011;8222;51.462;12.630;2022-12-24T14:04:53;3.97;;;1.70;;
16228;SDS011;8222;51.462;12.630;2022-12-24T14:07:26;3.20;;;1.05;;
16228;SDS011;8222;51.462;12.630;2022-12-24T14:09:51;2.80;;;1.00;;
16228;SDS011;8222;51.462;12.630;2022-12-24T14:18:15;1.88;;;0.77;;
16228;SDS011;8222;51.462;12.630;2022-12-24T14:20:42;1.80;;;0.80;;
16228;SDS011;8222;51.462;12.630;2022-12-24T14:23:32;1.90;;;0.98;;
16228;SDS011;8222;51.462;12.630;2022-12-24T14:26:08;2.87;;;0.80;;
16228;SDS011;8222;51.462;12.630;2022-12-24T14:28:39;1.75;;;0.60;;
16228;SDS011;8222;51.462;12.630;2022-12-24T14:31:13;1.70;;;1.05;;
16228;SDS011;8222;51.462;12.630;2022-12-24T14:33:41;1.40;;;0.80;;
16228;SDS011;8222;51.462;12.630;2022-12-24T14:36:07;1.20;;;0.85;;
16228;SDS011;8222;51.462;12.630;2022-12-24T14:38:33;1.43;;;0.80;;
16228;SDS011;8222;51.462;12.630;2022-12-24T14:49:15;2.95;;;1.40;;
16228;SDS011;8222;51.462;12.630;2022-12-24T15:07:35;1.48;;;0.75;;
16228;SDS011;8222;51.462;12.630;2022-12-24T15:10:04;3.23;;;1.10;;
16228;SDS011;8222;51.462;12.630;2022-12-24T15:12:32;0.65;;;0.60;;
16228;SDS011;8222;51.462;12.630;2022-12-24T15:14:58;0.80;;;0.80;;
16228;SDS011;8222;51.462;12.630;2022-12-24T15:17:24;0.80;;;0.80;;
16228;SDS011;8222;51.462;12.630;2022-12-24T15:19:51;3.05;;;1.33;;
16228;SDS011;8222;51.462;12.630;2022-12-24T15:22:27;4.00;;;2.83;;
16228;SDS011;8222;51.462;12.630;2022-12-24T15:24:56;3.38;;;2.38;;
16228;SDS011;8222;51.462;12.630;2022-12-24T15:27:25;3.70;;;3.25;;
16228;SDS011;8222;51.462;12.630;2022-12-24T15:29:54;3.53;;;2.60;;
16228;SDS011;8222;51.462;12.630;2022-12-24T15:32:21;2.33;;;2.10;;
16228;SDS011;8222;51.462;12.630;2022-12-24T15:34:48;4.55;;;3.60;;
16228;SDS011;8222;51.462;12.630;2022-12-24T15:37:26;3.92;;;3.50;;
16228;SDS011;8222;51.462;12.630;2022-12-24T15:42:34;3.17;;;2.40;;
16228;SDS011;8222;51.462;12.630;2022-12-24T15:45:26;2.85;;;2.10;;
16228;SDS011;8222;51.462;12.630;2022-12-24T15:48:00;3.58;;;1.60;;
16228;SDS011;8222;51.462;12.630;2022-12-24T15:50:32;2.00;;;1.50;;
16228;SDS011;8222;51.462;12.630;2022-12-24T15:53:04;2.90;;;1.85;;
16228;SDS011;8222;51.462;12.630;2022-12-24T15:55:45;2.63;;;1.63;;
16228;SDS011;8222;51.462;12.630;2022-12-24T15:58:25;2.67;;;1.92;;
16228;SDS011;8222;51.462;12.630;2022-12-24T16:01:03;1.50;;;1.40;;
16228;SDS011;8222;51.462;12.630;2022-12-24T16:03:39;2.40;;;1.50;;
16228;SDS011;8222;51.462;12.630;2022-12-24T16:06:17;1.50;;;1.30;;
16228;SDS011;8222;51.462;12.630;2022-12-24T16:08:44;3.17;;;2.00;;
16228;SDS011;8222;51.462;12.630;2022-12-24T16:11:15;3.50;;;2.27;;
16228;SDS011;8222;51.462;12.630;2022-12-24T16:16:30;6.60;;;5.70;;
16228;SDS011;8222;51.462;12.630;2022-12-24T16:18:59;5.70;;;5.20;;
16228;SDS011;8222;51.462;12.630;2022-12-24T16:21:30;7.78;;;3.75;;
16228;SDS011;8222;51.462;12.630;2022-12-24T16:26:53;4.20;;;3.10;;
16228;SDS011;8222;51.462;12.630;2022-12-24T16:29:19;4.32;;;3.47;;
16228;SDS011;8222;51.462;12.630;2022-12-24T16:34:22;8.40;;;6.63;;
16228;SDS011;8222;51.462;12.630;2022-12-24T16:36:51;9.70;;;8.70;;
16228;SDS011;8222;51.462;12.630;2022-12-24T16:39:20;12.60;;;10.68;;
16228;SDS011;8222;51.462;12.630;2022-12-24T16:41:48;24.88;;;21.35;;
16228;SDS011;8222;51.462;12.630;2022-12-24T16:44:36;17.77;;;15.65;;
16228;SDS011;8222;51.462;12.630;2022-12-24T16:47:02;13.68;;;12.23;;
16228;SDS011;8222;51.462;12.630;2022-12-24T16:49:35;11.80;;;10.23;;
16228;SDS011;8222;51.462;12.630;2022-12-24T16:52:02;9.20;;;7.93;;
16228;SDS011;8222;51.462;12.630;2022-12-24T16:54:29;8.33;;;7.10;;
16228;SDS011;8222;51.462;12.630;2022-12-24T16:56:55;9.37;;;7.50;;
16228;SDS011;8222;51.462;12.630;2022-12-24T16:59:21;6.53;;;5.93;;
16228;SDS011;8222;51.462;12.630;2022-12-24T17:01:48;6.60;;;5.43;;
16228;SDS011;8222;51.462;12.630;2022-12-24T17:04:15;4.05;;;3.65;;
16228;SDS011;8222;51.462;12.630;2022-12-24T17:06:41;4.30;;;3.47;;
16228;SDS011;8222;51.462;12.630;2022-12-24T17:09:09;5.13;;;3.83;;
16228;SDS011;8222;51.462;12.630;2022-12-24T17:11:35;4.60;;;3.67;;